createdAt,value
2019-02-20T00:00:33.504Z,3.40
2019-02-20T00:03:41.926Z,3.56
2019-02-20T00:06:49.141Z,3.45
2019-02-20T00:09:57.065Z,3.31
2019-02-20T00:13:03.928Z,3.39
2019-02-20T00:16:10.733Z,3.42
2019-02-20T00:19:20.609Z,3.34
2019-02-20T00:22:27.838Z,3.29
2019-02-20T00:25:34.690Z,3.39
2019-02-20T00:28:43.416Z,3.12
2019-02-20T00:31:50.477Z,3.38
2019-02-20T00:34:57.351Z,3.53
2019-02-20T00:38:04.490Z,3.42
2019-02-20T00:41:11.423Z,3.39
2019-02-20T00:44:27.531Z,3.30
2019-02-20T00:47:52.586Z,3.39
2019-02-20T00:51:11.215Z,3.19
2019-02-20T00:54:19.471Z,3.07
2019-02-20T00:57:26.427Z,3.18
2019-02-20T01:00:33.801Z,3.27
2019-02-20T01:03:40.587Z,3.33
2019-02-20T01:06:47.551Z,3.41
2019-02-20T01:09:54.611Z,3.33
2019-02-20T01:13:01.550Z,3.21
2019-02-20T01:16:08.407Z,3.18
2019-02-20T01:19:18.151Z,3.05
2019-02-20T01:22:26.166Z,2.90
2019-02-20T01:25:33.045Z,2.79
2019-02-20T01:28:39.910Z,2.80
2019-02-20T01:31:46.855Z,2.87
2019-02-20T01:34:53.871Z,2.94
2019-02-20T01:38:00.667Z,2.87
2019-02-20T01:41:07.561Z,2.70
2019-02-20T01:44:14.422Z,2.59
2019-02-20T01:47:21.824Z,2.21
2019-02-20T01:50:28.647Z,2.26
2019-02-20T01:53:35.619Z,2.42
2019-02-20T01:56:42.544Z,2.32
2019-02-20T01:59:50.938Z,2.38
2019-02-20T02:02:58.259Z,2.25
2019-02-20T02:06:05.108Z,2.22
2019-02-20T02:09:12.059Z,1.95
2019-02-20T02:12:19.078Z,2.18
2019-02-20T02:15:26.094Z,1.97
2019-02-20T02:18:33.206Z,2.09
2019-02-20T02:21:40.475Z,2.21
2019-02-20T02:24:47.938Z,2.23
2019-02-20T02:27:54.873Z,2.04
2019-02-20T02:31:01.702Z,2.19
2019-02-20T02:34:08.606Z,2.23
2019-02-20T02:37:15.563Z,2.29
2019-02-20T02:40:22.705Z,2.21
2019-02-20T02:43:29.535Z,2.25
2019-02-20T02:46:36.527Z,2.28
2019-02-20T02:49:43.568Z,2.21
2019-02-20T02:52:50.468Z,2.21
2019-02-20T02:55:57.412Z,2.27
2019-02-20T02:59:04.328Z,2.34
2019-02-20T03:02:11.231Z,2.31
2019-02-20T03:05:18.753Z,2.21
2019-02-20T03:08:25.587Z,2.19
2019-02-20T03:11:32.510Z,2.17
2019-02-20T03:14:39.367Z,2.34
2019-02-20T03:17:46.557Z,2.28
2019-02-20T03:20:53.416Z,2.15
2019-02-20T03:24:00.350Z,2.15
2019-02-20T03:27:07.274Z,2.20
2019-02-20T03:30:14.258Z,1.98
2019-02-20T03:33:21.539Z,2.05
2019-02-20T03:36:28.435Z,1.96
2019-02-20T03:39:35.417Z,2.09
2019-02-20T03:42:42.278Z,2.10
2019-02-20T03:45:49.241Z,2.01
2019-02-20T03:48:56.105Z,1.77
2019-02-20T03:52:03.150Z,1.83
2019-02-20T03:55:10.122Z,1.77
2019-02-20T03:58:17.045Z,1.36
2019-02-20T04:01:23.953Z,1.60
2019-02-20T04:04:30.905Z,1.80
2019-02-20T04:07:38.217Z,1.74
2019-02-20T04:10:45.199Z,1.67
2019-02-20T04:13:52.302Z,1.78
2019-02-20T04:16:59.354Z,1.67
2019-02-20T04:20:07.221Z,1.84
2019-02-20T04:23:14.113Z,1.62
2019-02-20T04:26:21.590Z,1.76
2019-02-20T04:29:28.562Z,1.99
2019-02-20T04:32:35.563Z,1.94
2019-02-20T04:35:42.533Z,2.13
2019-02-20T04:38:49.585Z,2.05
2019-02-20T04:41:56.500Z,2.09
2019-02-20T04:45:03.332Z,2.11
2019-02-20T04:48:11.897Z,2.06
2019-02-20T04:51:19.421Z,2.15
2019-02-20T04:54:26.256Z,2.10
2019-02-20T04:57:33.223Z,2.27
2019-02-20T05:00:40.146Z,2.24
2019-02-20T05:03:47.198Z,2.49
2019-02-20T05:06:54.355Z,2.47
2019-02-20T05:10:01.550Z,2.52
2019-02-20T05:13:08.466Z,2.48
2019-02-20T05:16:15.296Z,2.55
2019-02-20T05:19:22.256Z,2.51
2019-02-20T05:22:29.265Z,2.54
2019-02-20T05:25:40.848Z,2.54
2019-02-20T05:28:47.799Z,2.61
2019-02-20T05:31:56.906Z,2.66
2019-02-20T05:35:03.869Z,2.72
2019-02-20T05:38:10.783Z,2.68
2019-02-20T05:41:19.127Z,2.73
2019-02-20T05:44:26.061Z,2.73
2019-02-20T05:47:32.850Z,2.80
2019-02-20T05:50:40.231Z,2.84
2019-02-20T05:53:47.225Z,2.80
2019-02-20T05:56:54.187Z,2.84
2019-02-20T06:00:01.190Z,2.78
2019-02-20T06:03:09.441Z,2.67
2019-02-20T06:06:18.034Z,2.77
2019-02-20T06:09:24.954Z,2.79
2019-02-20T06:12:33.023Z,2.88
2019-02-20T06:15:39.967Z,2.89
2019-02-20T06:18:47.794Z,2.87
2019-02-20T06:21:54.737Z,2.93
2019-02-20T06:25:01.627Z,2.88
2019-02-20T06:28:08.585Z,2.90
2019-02-20T06:31:15.428Z,2.97
2019-02-20T06:34:23.068Z,2.98
2019-02-20T06:37:29.868Z,3.01
2019-02-20T06:40:36.932Z,3.02
2019-02-20T06:43:44.091Z,2.94
2019-02-20T06:46:52.575Z,2.98
2019-02-20T06:50:01.184Z,3.04
2019-02-20T06:53:08.060Z,3.04
2019-02-20T06:56:14.938Z,3.03
2019-02-20T06:59:22.025Z,3.11
2019-02-20T07:02:31.796Z,3.13
2019-02-20T07:05:42.016Z,3.11
2019-02-20T07:09:39.867Z,3.11
2019-02-20T07:14:00.840Z,3.12
2019-02-20T07:17:54.075Z,3.10
2019-02-20T07:22:01.094Z,3.14
2019-02-20T07:25:38.126Z,3.13
2019-02-20T07:29:35.775Z,3.19
2019-02-20T07:32:42.557Z,3.27
2019-02-20T07:35:49.379Z,3.34
2019-02-20T07:38:56.182Z,3.39
2019-02-20T07:42:03.090Z,3.42
2019-02-20T07:45:13.341Z,3.43
2019-02-20T07:48:22.944Z,3.47
2019-02-20T07:51:29.836Z,3.45
2019-02-20T07:54:36.701Z,3.41
2019-02-20T07:57:43.908Z,3.43
2019-02-20T08:00:50.979Z,3.53
2019-02-20T08:03:57.870Z,3.69
2019-02-20T08:07:04.923Z,3.77
2019-02-20T08:10:46.560Z,3.83
2019-02-20T08:13:53.972Z,3.91
2019-02-20T08:17:00.902Z,4.04
2019-02-20T08:20:08.874Z,4.16
2019-02-20T08:23:15.867Z,4.36
2019-02-20T08:26:22.908Z,4.30
2019-02-20T08:29:30.076Z,4.46
2019-02-20T08:32:37.143Z,4.41
2019-02-20T08:35:44.163Z,4.45
2019-02-20T08:38:51.305Z,4.51
2019-02-20T08:41:59.392Z,4.57
2019-02-20T08:45:06.912Z,4.62
2019-02-20T08:48:14.058Z,4.70
2019-02-20T08:51:21.761Z,4.79
2019-02-20T08:54:28.820Z,4.81
2019-02-20T08:57:36.076Z,4.80
2019-02-20T09:00:43.136Z,4.89
2019-02-20T09:03:50.297Z,4.96
2019-02-20T09:06:57.344Z,5.06
2019-02-20T09:10:04.907Z,5.07
2019-02-20T09:13:11.936Z,5.25
2019-02-20T09:16:22.434Z,5.38
2019-02-20T09:19:29.594Z,5.44
2019-02-20T09:22:36.662Z,5.48
2019-02-20T09:25:43.687Z,5.49
2019-02-20T09:28:50.690Z,5.49
2019-02-20T09:31:57.595Z,5.57
2019-02-20T09:35:05.487Z,5.67
2019-02-20T09:38:12.587Z,5.71
2019-02-20T09:41:19.633Z,5.95
2019-02-20T09:44:26.455Z,5.98
2019-02-20T09:47:33.551Z,6.04
2019-02-20T09:50:40.851Z,5.99
2019-02-20T09:53:47.967Z,6.18
2019-02-20T09:56:54.898Z,6.38
2019-02-20T10:00:01.915Z,6.34
2019-02-20T10:03:10.423Z,6.46
2019-02-20T10:06:17.521Z,6.55
2019-02-20T10:09:24.567Z,6.69
2019-02-20T10:12:31.462Z,6.92
2019-02-20T10:15:38.631Z,6.96
2019-02-20T10:18:46.091Z,6.91
2019-02-20T10:21:56.167Z,7.16
2019-02-20T10:25:05.104Z,7.35
2019-02-20T10:28:12.258Z,7.26
2019-02-20T10:31:19.723Z,7.13
2019-02-20T10:34:26.627Z,7.11
2019-02-20T10:37:33.551Z,7.20
2019-02-20T10:40:40.426Z,7.34
2019-02-20T10:43:47.397Z,7.50
2019-02-20T10:46:54.398Z,7.51
2019-02-20T10:50:01.433Z,7.69
2019-02-20T10:53:08.394Z,7.50
2019-02-20T10:56:15.475Z,7.51
2019-02-20T10:59:22.544Z,7.54
2019-02-20T11:02:30.598Z,7.59
2019-02-20T11:05:38.412Z,7.79
2019-02-20T11:08:45.533Z,7.85
2019-02-20T11:12:12.562Z,8.02
2019-02-20T11:15:19.879Z,8.22
2019-02-20T11:18:27.071Z,7.73
2019-02-20T11:21:34.351Z,7.62
2019-02-20T11:24:41.365Z,7.65
2019-02-20T11:27:48.409Z,7.63
2019-02-20T11:30:56.832Z,7.61
2019-02-20T11:34:04.730Z,7.78
2019-02-20T11:37:11.794Z,7.59
2019-02-20T11:40:19.102Z,7.65
2019-02-20T11:43:26.249Z,7.69
2019-02-20T11:46:33.345Z,7.78
2019-02-20T11:49:40.205Z,7.67
2019-02-20T11:52:47.150Z,7.70
2019-02-20T11:55:54.250Z,7.88
2019-02-20T11:59:01.234Z,7.94
2019-02-20T12:02:08.247Z,7.88
2019-02-20T12:05:15.253Z,8.14
2019-02-20T12:08:23.722Z,8.34
2019-02-20T12:11:30.807Z,8.18
2019-02-20T12:14:37.663Z,8.05
2019-02-20T12:17:44.572Z,8.09
2019-02-20T12:20:51.638Z,7.88
2019-02-20T12:24:00.658Z,7.86
2019-02-20T12:27:07.617Z,7.87
2019-02-20T12:30:14.571Z,7.75
2019-02-20T12:33:21.452Z,7.73
2019-02-20T12:36:29.445Z,7.80
2019-02-20T12:39:37.922Z,7.82
2019-02-20T12:42:46.352Z,7.73
2019-02-20T12:45:53.123Z,7.78
2019-02-20T12:49:00.035Z,7.69
2019-02-20T12:52:06.839Z,7.74
2019-02-20T12:55:13.792Z,7.74
2019-02-20T12:58:20.768Z,7.74
2019-02-20T13:01:27.783Z,7.78
2019-02-20T13:04:34.920Z,7.86
2019-02-20T13:07:41.822Z,7.97
2019-02-20T13:10:48.769Z,7.96
2019-02-20T13:13:55.690Z,7.99
2019-02-20T13:17:02.535Z,8.06
2019-02-20T13:20:09.508Z,8.09
2019-02-20T13:23:20.094Z,8.10
2019-02-20T13:26:26.828Z,8.10
2019-02-20T13:29:33.747Z,8.02
2019-02-20T13:32:40.715Z,8.06
2019-02-20T13:35:47.544Z,8.17
2019-02-20T13:38:54.752Z,8.21
2019-02-20T13:42:01.601Z,8.24
2019-02-20T13:45:08.663Z,8.14
2019-02-20T13:48:15.739Z,8.00
2019-02-20T13:51:22.886Z,8.05
2019-02-20T13:54:30.042Z,7.99
2019-02-20T13:57:36.928Z,7.89
2019-02-20T14:00:44.532Z,7.87
2019-02-20T14:03:53.295Z,7.84
2019-02-20T14:07:00.376Z,7.86
2019-02-20T14:10:10.571Z,7.76
2019-02-20T14:13:18.438Z,7.80
2019-02-20T14:16:25.777Z,7.83
2019-02-20T14:19:34.753Z,7.82
2019-02-20T14:22:41.419Z,7.76
2019-02-20T14:25:48.327Z,7.74
2019-02-20T14:28:55.575Z,7.79
2019-02-20T14:32:02.443Z,7.89
2019-02-20T14:35:09.603Z,7.81
2019-02-20T14:38:17.244Z,7.95
2019-02-20T14:41:24.291Z,7.96
2019-02-20T14:44:31.163Z,7.90
2019-02-20T14:47:38.177Z,7.88
2019-02-20T14:50:45.213Z,8.01
2019-02-20T14:53:54.248Z,7.97
2019-02-20T14:57:01.449Z,7.92
2019-02-20T15:00:10.126Z,7.96
2019-02-20T15:03:17.530Z,7.94
2019-02-20T15:06:24.697Z,7.91
2019-02-20T15:09:31.646Z,7.90
2019-02-20T15:12:38.777Z,7.93
2019-02-20T15:15:47.394Z,7.96
2019-02-20T15:18:54.423Z,7.87
2019-02-20T15:22:01.769Z,7.84
2019-02-20T15:25:09.146Z,7.82
2019-02-20T15:28:17.492Z,7.76
2019-02-20T15:31:33.462Z,7.76
2019-02-20T15:34:34.859Z,7.78
2019-02-20T15:37:42.997Z,7.72
2019-02-20T15:40:49.997Z,7.65
2019-02-20T15:43:57.222Z,7.62
2019-02-20T15:47:04.051Z,7.56
2019-02-20T15:50:12.206Z,7.52
2019-02-20T15:53:21.031Z,7.45
2019-02-20T15:56:28.030Z,7.37
2019-02-20T15:59:34.973Z,7.38
2019-02-20T16:02:42.078Z,7.34
2019-02-20T16:05:49.557Z,7.28
2019-02-20T16:08:56.397Z,7.19
2019-02-20T16:12:03.418Z,7.16
2019-02-20T16:15:10.829Z,7.09
2019-02-20T16:18:19.945Z,7.07
2019-02-20T16:21:27.008Z,6.97
2019-02-20T16:24:33.969Z,6.99
2019-02-20T16:27:46.812Z,6.99
2019-02-20T16:30:49.840Z,7.02
2019-02-20T16:33:56.970Z,6.97
2019-02-20T16:37:03.973Z,6.91
2019-02-20T16:40:12.413Z,6.81
2019-02-20T16:43:20.264Z,6.89
2019-02-20T16:46:28.419Z,6.82
2019-02-20T16:49:35.536Z,6.62
2019-02-20T16:52:42.440Z,6.77
2019-02-20T16:55:49.400Z,6.69
2019-02-20T16:58:56.904Z,6.58
2019-02-20T17:02:03.922Z,6.65
2019-02-20T17:05:14.268Z,6.75
2019-02-20T17:08:23.494Z,6.60
2019-02-20T17:11:30.471Z,6.68
2019-02-20T17:14:37.592Z,6.69
2019-02-20T17:17:44.581Z,6.74
2019-02-20T17:20:51.502Z,6.39
2019-02-20T17:23:58.824Z,6.60
2019-02-20T17:27:06.919Z,6.56
2019-02-20T17:30:14.254Z,6.43
2019-02-20T17:33:21.223Z,6.67
2019-02-20T17:36:29.599Z,6.47
2019-02-20T17:39:36.609Z,6.22
2019-02-20T17:42:43.593Z,6.34
2019-02-20T17:45:51.976Z,6.45
2019-02-20T17:48:59.136Z,6.39
2019-02-20T17:52:06.083Z,6.52
2019-02-20T17:55:13.083Z,6.43
2019-02-20T17:58:20.166Z,6.40
2019-02-20T18:01:27.157Z,6.21
2019-02-20T18:04:35.926Z,6.34
2019-02-20T18:07:49.873Z,5.98
2019-02-20T18:10:51.619Z,5.88
2019-02-20T18:13:58.692Z,6.01
2019-02-20T18:17:05.874Z,5.74
2019-02-20T18:20:12.786Z,5.68
2019-02-20T18:23:22.466Z,5.76
2019-02-20T18:26:29.422Z,5.86
2019-02-20T18:29:36.338Z,5.54
2019-02-20T18:32:43.348Z,5.66
2019-02-20T18:35:50.241Z,5.64
2019-02-20T18:38:57.884Z,5.69
2019-02-20T18:42:04.823Z,5.80
2019-02-20T18:45:13.102Z,5.95
2019-02-20T18:48:20.266Z,5.55
2019-02-20T18:51:28.227Z,5.49
2019-02-20T18:54:35.194Z,5.57
2019-02-20T18:57:42.128Z,5.54
2019-02-20T19:00:49.114Z,5.63
2019-02-20T19:03:56.789Z,5.68
2019-02-20T19:07:22.484Z,5.78
2019-02-20T19:10:35.085Z,5.75
2019-02-20T19:14:19.480Z,5.69
2019-02-20T19:18:47.805Z,5.67
2019-02-20T19:22:55.624Z,5.27
2019-02-20T19:26:37.874Z,5.31
2019-02-20T19:30:29.827Z,5.05
2019-02-20T19:34:40.006Z,5.04
2019-02-20T19:38:33.157Z,4.85
2019-02-20T19:42:19.754Z,4.71
2019-02-20T19:46:23.612Z,4.47
2019-02-20T19:50:41.861Z,4.25
2019-02-20T19:54:42.072Z,4.70
2019-02-20T19:58:38.182Z,4.70
2019-02-20T20:03:00.330Z,4.81
2019-02-20T20:07:12.138Z,4.87
2019-02-20T20:11:07.040Z,4.51
2019-02-20T20:14:57.891Z,4.74
2019-02-20T20:18:30.111Z,4.78
2019-02-20T20:22:49.971Z,4.76
2019-02-20T20:26:56.139Z,4.93
2019-02-20T20:31:21.478Z,4.66
2019-02-20T20:35:18.472Z,4.61
2019-02-20T20:38:46.733Z,4.59
2019-02-20T20:42:58.882Z,4.53
2019-02-20T20:47:04.230Z,4.58
2019-02-20T20:51:21.279Z,4.32
2019-02-20T20:55:31.139Z,4.50
2019-02-20T20:59:17.503Z,4.35
2019-02-20T21:02:58.754Z,4.56
2019-02-20T21:07:11.115Z,4.72
2019-02-20T21:11:29.865Z,4.43
2019-02-20T21:15:12.654Z,4.31
2019-02-20T21:19:40.157Z,4.07
2019-02-20T21:23:19.989Z,3.77
2019-02-20T21:27:25.062Z,3.82
2019-02-20T21:31:34.752Z,4.08
2019-02-20T21:35:16.866Z,3.92
2019-02-20T21:39:44.922Z,3.95
2019-02-20T21:43:41.390Z,3.82
2019-02-20T21:47:37.305Z,3.74
2019-02-20T21:51:59.903Z,3.69
2019-02-20T21:55:40.185Z,3.69
2019-02-20T21:59:45.724Z,3.43
2019-02-20T22:04:14.623Z,3.65
2019-02-20T22:08:10.435Z,3.34
2019-02-20T22:12:20.263Z,3.43
2019-02-20T22:16:20.177Z,3.33
2019-02-20T22:20:42.358Z,2.92
2019-02-20T22:24:13.328Z,3.09
2019-02-20T22:27:53.428Z,3.06
2019-02-20T22:31:27.067Z,3.04
2019-02-20T22:35:13.177Z,2.97
2019-02-20T22:39:23.572Z,2.49
2019-02-20T22:43:21.828Z,2.63
2019-02-20T22:47:03.658Z,2.57
2019-02-20T22:50:53.915Z,2.57
2019-02-20T22:55:02.442Z,2.78
2019-02-20T22:59:18.129Z,2.24
2019-02-20T23:03:22.721Z,2.56
2019-02-20T23:07:03.159Z,2.42
2019-02-20T23:11:13.433Z,2.60
2019-02-20T23:15:00.942Z,2.55
2019-02-20T23:18:09.577Z,2.46
2019-02-20T23:21:19.945Z,2.56
2019-02-20T23:24:26.911Z,2.68
2019-02-20T23:27:33.848Z,2.69
2019-02-20T23:30:40.810Z,2.23
2019-02-20T23:33:47.646Z,2.26
2019-02-20T23:36:55.777Z,1.86
2019-02-20T23:40:04.738Z,2.28
2019-02-20T23:43:11.531Z,2.43
2019-02-20T23:46:18.727Z,2.57
2019-02-20T23:49:25.559Z,2.36
2019-02-20T23:52:32.600Z,2.31
2019-02-20T23:55:39.621Z,2.42
2019-02-20T23:58:46.578Z,2.49
